sensor_id;sensor_type;location;lat;lon;timestamp;pressure;altitude;pressure_sealevel;temperature;humidity
49835;BME280;35729;52.090;13.162;2023-02-13T00:01:29;103196.91;;;6.32;100.00
49835;BME280;35729;52.090;13.162;2023-02-13T00:03:58;103192.50;;;6.31;100.00
49835;BME280;35729;52.090;13.162;2023-02-13T00:06:27;103195.16;;;6.33;100.00
49835;BME280;35729;52.090;13.162;2023-02-13T00:08:55;103202.16;;;6.34;100.00
49835;BME280;35729;52.090;13.162;2023-02-13T00:11:24;103203.88;;;6.33;100.00
49835;BME280;35729;52.090;13.162;2023-02-13T00:13:52;103190.84;;;6.33;100.00
49835;BME280;35729;52.090;13.162;2023-02-13T00:16:21;103188.25;;;6.33;100.00
49835;BME280;35729;52.090;13.162;2023-02-13T00:18:52;103185.63;;;6.33;100.00
49835;BME280;35729;52.090;13.162;2023-02-13T00:21:20;103195.16;;;6.33;100.00
49835;BME280;35729;52.090;13.162;2023-02-13T00:23:49;103190.03;;;6.34;100.00
49835;BME280;35729;52.090;13.162;2023-02-13T00:26:17;103183.03;;;6.33;100.00
49835;BME280;35729;52.090;13.162;2023-02-13T00:28:46;103184.81;;;6.34;100.00
49835;BME280;35729;52.090;13.162;2023-02-13T00:31:16;103190.84;;;6.33;100.00
49835;BME280;35729;52.090;13.162;2023-02-13T00:33:45;103184.72;;;6.33;100.00
49835;BME280;35729;52.090;13.162;2023-02-13T00:36:18;103176.88;;;6.31;100.00
49835;BME280;35729;52.090;13.162;2023-02-13T00:38:47;103179.47;;;6.31;100.00
49835;BME280;35729;52.090;13.162;2023-02-13T00:41:16;103182.03;;;6.30;100.00
49835;BME280;35729;52.090;13.162;2023-02-13T00:43:45;103183.75;;;6.29;100.00
49835;BME280;35729;52.090;13.162;2023-02-13T00:46:14;103180.25;;;6.29;100.00
49835;BME280;35729;52.090;13.162;2023-02-13T00:48:43;103183.69;;;6.28;100.00
49835;BME280;35729;52.090;13.162;2023-02-13T00:51:12;103185.41;;;6.27;100.00
49835;BME280;35729;52.090;13.162;2023-02-13T00:53:43;103185.38;;;6.26;100.00
49835;BME280;35729;52.090;13.162;2023-02-13T00:56:12;103185.28;;;6.24;100.00
49835;BME280;35729;52.090;13.162;2023-02-13T00:58:40;103185.28;;;6.24;100.00
49835;BME280;35729;52.090;13.162;2023-02-13T01:01:09;103184.38;;;6.22;100.00
49835;BME280;35729;52.090;13.162;2023-02-13T01:03:38;103185.16;;;6.19;100.00
49835;BME280;35729;52.090;13.162;2023-02-13T01:06:06;103185.09;;;6.18;100.00
49835;BME280;35729;52.090;13.162;2023-02-13T01:08:38;103182.50;;;6.18;100.00
49835;BME280;35729;52.090;13.162;2023-02-13T01:11:09;103188.59;;;6.18;100.00
49835;BME280;35729;52.090;13.162;2023-02-13T01:13:38;103188.53;;;6.17;100.00
49835;BME280;35729;52.090;13.162;2023-02-13T01:16:06;103193.75;;;6.17;100.00
49835;BME280;35729;52.090;13.162;2023-02-13T01:18:35;103185.84;;;6.15;100.00
49835;BME280;35729;52.090;13.162;2023-02-13T01:21:05;103183.94;;;6.10;100.00
49835;BME280;35729;52.090;13.162;2023-02-13T01:23:36;103188.41;;;6.14;100.00
49835;BME280;35729;52.090;13.162;2023-02-13T01:26:06;103181.41;;;6.13;100.00
49835;BME280;35729;52.090;13.162;2023-02-13T01:28:37;103183.97;;;6.11;100.00
49835;BME280;35729;52.090;13.162;2023-02-13T01:31:06;103185.75;;;6.12;100.00
49835;BME280;35729;52.090;13.162;2023-02-13T01:33:34;103186.59;;;6.11;100.00
49835;BME280;35729;52.090;13.162;2023-02-13T01:36:07;103188.31;;;6.11;100.00
49835;BME280;35729;52.090;13.162;2023-02-13T01:38:36;103180.44;;;6.09;100.00
49835;BME280;35729;52.090;13.162;2023-02-13T01:41:05;103183.94;;;6.10;100.00
49835;BME280;35729;52.090;13.162;2023-02-13T01:43:48;103173.50;;;6.10;100.00
49835;BME280;35729;52.090;13.162;2023-02-13T01:46:22;103176.94;;;6.09;100.00
49835;BME280;35729;52.090;13.162;2023-02-13T01:48:55;103178.63;;;6.07;100.00
49835;BME280;35729;52.090;13.162;2023-02-13T01:51:27;103176.00;;;6.07;100.00
49835;BME280;35729;52.090;13.162;2023-02-13T01:54:00;103174.22;;;6.06;100.00
49835;BME280;35729;52.090;13.162;2023-02-13T01:56:33;103184.59;;;6.04;100.00
49835;BME280;35729;52.090;13.162;2023-02-13T01:59:07;103181.03;;;6.02;100.00
49835;BME280;35729;52.090;13.162;2023-02-13T02:01:37;103178.50;;;6.03;100.00
49835;BME280;35729;52.090;13.162;2023-02-13T02:04:08;103175.88;;;6.03;100.00
49835;BME280;35729;52.090;13.162;2023-02-13T02:06:42;103166.28;;;6.02;100.00
49835;BME280;35729;52.090;13.162;2023-02-13T02:09:14;103167.19;;;6.03;100.00
49835;BME280;35729;52.090;13.162;2023-02-13T02:11:50;103164.47;;;6.00;100.00
49835;BME280;35729;52.090;13.162;2023-02-13T02:14:22;103170.66;;;6.03;100.00
49835;BME280;35729;52.090;13.162;2023-02-13T02:16:50;103166.28;;;6.02;100.00
49835;BME280;35729;52.090;13.162;2023-02-13T02:19:28;103165.47;;;6.03;100.00
49835;BME280;35729;52.090;13.162;2023-02-13T02:22:19;103168.97;;;6.04;100.00
49835;BME280;35729;52.090;13.162;2023-02-13T02:25:04;103172.44;;;6.05;100.00
49835;BME280;35729;52.090;13.162;2023-02-13T02:27:55;103177.66;;;6.05;100.00
49835;BME280;35729;52.090;13.162;2023-02-13T02:31:04;103177.63;;;6.03;100.00
49835;BME280;35729;52.090;13.162;2023-02-13T02:33:49;103181.91;;;6.02;100.00
49835;BME280;35729;52.090;13.162;2023-02-13T02:36:33;103181.09;;;6.03;100.00
49835;BME280;35729;52.090;13.162;2023-02-13T02:39:13;103192.28;;;6.01;100.00
49835;BME280;35729;52.090;13.162;2023-02-13T02:41:53;103182.75;;;6.01;100.00
49835;BME280;35729;52.090;13.162;2023-02-13T02:44:35;103185.34;;;6.01;100.00
49835;BME280;35729;52.090;13.162;2023-02-13T02:47:10;103181.00;;;6.00;100.00
49835;BME280;35729;52.090;13.162;2023-02-13T02:50:02;103185.31;;;6.00;100.00
49835;BME280;35729;52.090;13.162;2023-02-13T02:52:44;103180.09;;;6.00;100.00
49835;BME280;35729;52.090;13.162;2023-02-13T02:55:25;103182.66;;;5.98;100.00
49835;BME280;35729;52.090;13.162;2023-02-13T02:58:05;103184.34;;;5.98;100.00
49835;BME280;35729;52.090;13.162;2023-02-13T03:00:49;103185.19;;;5.97;100.00
49835;BME280;35729;52.090;13.162;2023-02-13T03:03:33;103180.78;;;5.96;100.00
49835;BME280;35729;52.090;13.162;2023-02-13T03:06:21;103181.56;;;5.93;100.00
49835;BME280;35729;52.090;13.162;2023-02-13T03:08:55;103185.00;;;5.92;100.00
49835;BME280;35729;52.090;13.162;2023-02-13T03:11:37;103182.38;;;5.92;100.00
49835;BME280;35729;52.090;13.162;2023-02-13T03:14:19;103187.59;;;5.92;100.00
49835;BME280;35729;52.090;13.162;2023-02-13T03:16:48;103186.66;;;5.90;100.00
49835;BME280;35729;52.090;13.162;2023-02-13T03:19:37;103191.84;;;5.90;100.00
49835;BME280;35729;52.090;13.162;2023-02-13T03:22:32;103182.28;;;5.89;100.00
49835;BME280;35729;52.090;13.162;2023-02-13T03:25:09;103191.81;;;5.88;100.00
49835;BME280;35729;52.090;13.162;2023-02-13T03:27:45;103189.09;;;5.85;100.00
49835;BME280;35729;52.090;13.162;2023-02-13T03:30:39;103188.19;;;5.85;100.00
49835;BME280;35729;52.090;13.162;2023-02-13T03:33:22;103187.28;;;5.83;100.00
49835;BME280;35729;52.090;13.162;2023-02-13T03:36:02;103187.28;;;5.83;100.00
49835;BME280;35729;52.090;13.162;2023-02-13T03:38:52;103183.75;;;5.82;100.00
49835;BME280;35729;52.090;13.162;2023-02-13T03:41:25;103195.91;;;5.82;100.00
49835;BME280;35729;52.090;13.162;2023-02-13T03:44:05;103188.09;;;5.82;100.00
49835;BME280;35729;52.090;13.162;2023-02-13T03:46:40;103190.69;;;5.82;100.00
49835;BME280;35729;52.090;13.162;2023-02-13T03:49:12;103195.91;;;5.82;100.00
49835;BME280;35729;52.090;13.162;2023-02-13T03:51:59;103187.22;;;5.81;100.00
49835;BME280;35729;52.090;13.162;2023-02-13T03:54:37;103193.25;;;5.80;100.00
49835;BME280;35729;52.090;13.162;2023-02-13T03:57:21;103202.84;;;5.81;100.00
49835;BME280;35729;52.090;13.162;2023-02-13T04:00:08;103195.88;;;5.80;100.00
49835;BME280;35729;52.090;13.162;2023-02-13T04:02:42;103195.03;;;5.81;100.00
49835;BME280;35729;52.090;13.162;2023-02-13T04:05:15;103202.84;;;5.81;100.00
49835;BME280;35729;52.090;13.162;2023-02-13T04:07:45;103203.72;;;5.82;100.00
49835;BME280;35729;52.090;13.162;2023-02-13T04:10:17;103196.72;;;5.81;100.00
49835;BME280;35729;52.090;13.162;2023-02-13T04:12:51;103200.25;;;5.81;100.00
49835;BME280;35729;52.090;13.162;2023-02-13T04:15:29;103194.97;;;5.80;100.00
49835;BME280;35729;52.090;13.162;2023-02-13T04:18:05;103193.25;;;5.80;100.00
49835;BME280;35729;52.090;13.162;2023-02-13T04:20:37;103183.72;;;5.81;100.00
49835;BME280;35729;52.090;13.162;2023-02-13T04:23:06;103181.09;;;5.81;100.00
49835;BME280;35729;52.090;13.162;2023-02-13T04:25:49;103175.91;;;5.81;100.00
49835;BME280;35729;52.090;13.162;2023-02-13T04:28:17;103176.81;;;5.81;100.00
49835;BME280;35729;52.090;13.162;2023-02-13T04:30:46;103171.50;;;5.80;100.00
49835;BME280;35729;52.090;13.162;2023-02-13T04:33:15;103168.91;;;5.80;100.00
49835;BME280;35729;52.090;13.162;2023-02-13T04:35:43;103175.84;;;5.79;100.00
49835;BME280;35729;52.090;13.162;2023-02-13T04:38:12;103164.56;;;5.79;100.00
49835;BME280;35729;52.090;13.162;2023-02-13T04:40:40;103169.75;;;5.79;100.00
49835;BME280;35729;52.090;13.162;2023-02-13T04:43:11;103166.25;;;5.78;100.00
49835;BME280;35729;52.090;13.162;2023-02-13T04:45:40;103162.69;;;5.76;100.00
49835;BME280;35729;52.090;13.162;2023-02-13T04:48:08;103169.69;;;5.77;100.00
49835;BME280;35729;52.090;13.162;2023-02-13T04:50:37;103165.38;;;5.78;100.00
49835;BME280;35729;52.090;13.162;2023-02-13T04:53:05;103177.56;;;5.79;100.00
49835;BME280;35729;52.090;13.162;2023-02-13T04:55:34;103172.38;;;5.79;100.00
49835;BME280;35729;52.090;13.162;2023-02-13T04:58:02;103166.25;;;5.78;100.00
49835;BME280;35729;52.090;13.162;2023-02-13T05:00:33;103168.81;;;5.77;100.00
49835;BME280;35729;52.090;13.162;2023-02-13T05:03:04;103169.63;;;5.76;100.00
49835;BME280;35729;52.090;13.162;2023-02-13T05:05:33;103168.66;;;5.74;100.00
49835;BME280;35729;52.090;13.162;2023-02-13T05:08:02;103169.53;;;5.73;100.00
49835;BME280;35729;52.090;13.162;2023-02-13T05:10:31;103173.78;;;5.70;100.00
49835;BME280;35729;52.090;13.162;2023-02-13T05:12:59;103174.59;;;5.69;100.00
49835;BME280;35729;52.090;13.162;2023-02-13T05:15:28;103178.03;;;5.68;100.00
49835;BME280;35729;52.090;13.162;2023-02-13T05:17:59;103176.28;;;5.67;100.00
49835;BME280;35729;52.090;13.162;2023-02-13T05:20:27;103182.31;;;5.66;100.00
49835;BME280;35729;52.090;13.162;2023-02-13T05:22:56;103180.53;;;5.65;100.00
49835;BME280;35729;52.090;13.162;2023-02-13T05:25:38;103172.72;;;5.65;100.00
49835;BME280;35729;52.090;13.162;2023-02-13T05:28:08;103176.16;;;5.64;100.00
49835;BME280;35729;52.090;13.162;2023-02-13T05:30:56;103178.72;;;5.63;100.00
49835;BME280;35729;52.090;13.162;2023-02-13T05:33:25;103173.50;;;5.63;100.00
49835;BME280;35729;52.090;13.162;2023-02-13T05:35:53;103176.09;;;5.63;100.00
49835;BME280;35729;52.090;13.162;2023-02-13T05:38:22;103177.81;;;5.62;100.00
49835;BME280;35729;52.090;13.162;2023-02-13T05:40:50;103172.59;;;5.62;100.00
49835;BME280;35729;52.090;13.162;2023-02-13T05:43:19;103170.75;;;5.60;100.00
49835;BME280;35729;52.090;13.162;2023-02-13T05:45:47;103172.50;;;5.59;100.00
49835;BME280;35729;52.090;13.162;2023-02-13T05:48:16;103178.56;;;5.60;100.00
49835;BME280;35729;52.090;13.162;2023-02-13T05:50:48;103177.69;;;5.59;100.00
49835;BME280;35729;52.090;13.162;2023-02-13T05:53:16;103177.69;;;5.59;100.00
49835;BME280;35729;52.090;13.162;2023-02-13T05:55:45;103180.31;;;5.59;100.00
49835;BME280;35729;52.090;13.162;2023-02-13T05:58:15;103195.06;;;5.59;100.00
49835;BME280;35729;52.090;13.162;2023-02-13T06:00:44;103188.00;;;5.56;100.00
49835;BME280;35729;52.090;13.162;2023-02-13T06:03:12;103194.03;;;5.55;100.00
49835;BME280;35729;52.090;13.162;2023-02-13T06:05:41;103201.84;;;5.55;100.00
49835;BME280;35729;52.090;13.162;2023-02-13T06:08:12;103204.47;;;5.55;100.00
49835;BME280;35729;52.090;13.162;2023-02-13T06:10:40;103202.78;;;5.57;100.00
49835;BME280;35729;52.090;13.162;2023-02-13T06:13:09;103204.47;;;5.55;100.00
49835;BME280;35729;52.090;13.162;2023-02-13T06:15:37;103197.47;;;5.54;100.00
49835;BME280;35729;52.090;13.162;2023-02-13T06:18:06;103201.81;;;5.53;100.00
49835;BME280;35729;52.090;13.162;2023-02-13T06:20:35;103209.53;;;5.52;100.00
49835;BME280;35729;52.090;13.162;2023-02-13T06:23:28;103206.94;;;5.52;100.00
49835;BME280;35729;52.090;13.162;2023-02-13T06:26:00;103210.34;;;5.51;100.00
49835;BME280;35729;52.090;13.162;2023-02-13T06:28:29;103212.03;;;5.49;100.00
49835;BME280;35729;52.090;13.162;2023-02-13T06:30:58;103205.88;;;5.47;100.00
49835;BME280;35729;52.090;13.162;2023-02-13T06:33:26;103211.13;;;5.48;100.00
49835;BME280;35729;52.090;13.162;2023-02-13T06:35:55;103216.34;;;5.48;100.00
49835;BME280;35729;52.090;13.162;2023-02-13T06:38:23;103216.34;;;5.48;100.00
49835;BME280;35729;52.090;13.162;2023-02-13T06:41:07;103217.25;;;5.49;100.00
49835;BME280;35729;52.090;13.162;2023-02-13T06:43:36;103221.53;;;5.48;100.00
49835;BME280;35729;52.090;13.162;2023-02-13T06:46:05;103222.41;;;5.47;100.00
49835;BME280;35729;52.090;13.162;2023-02-13T06:48:33;103228.47;;;5.48;100.00
49835;BME280;35729;52.090;13.162;2023-02-13T06:51:02;103231.06;;;5.48;100.00
49835;BME280;35729;52.090;13.162;2023-02-13T06:53:31;103230.19;;;5.47;100.00
49835;BME280;35729;52.090;13.162;2023-02-13T06:56:03;103237.06;;;5.45;100.00
49835;BME280;35729;52.090;13.162;2023-02-13T06:58:37;103238.69;;;5.43;100.00
49835;BME280;35729;52.090;13.162;2023-02-13T07:01:05;103244.81;;;5.44;100.00
49835;BME280;35729;52.090;13.162;2023-02-13T07:03:34;103242.16;;;5.42;100.00
49835;BME280;35729;52.090;13.162;2023-02-13T07:06:03;103244.75;;;5.42;100.00
49835;BME280;35729;52.090;13.162;2023-02-13T07:08:31;103249.06;;;5.42;100.00
49835;BME280;35729;52.090;13.162;2023-02-13T07:11:00;103240.44;;;5.43;100.00
49835;BME280;35729;52.090;13.162;2023-02-13T07:13:28;103246.50;;;5.43;100.00
49835;BME280;35729;52.090;13.162;2023-02-13T07:16:02;103249.97;;;5.42;100.00
49835;BME280;35729;52.090;13.162;2023-02-13T07:18:30;103247.38;;;5.42;100.00
49835;BME280;35729;52.090;13.162;2023-02-13T07:20:59;103246.50;;;5.43;100.00
49835;BME280;35729;52.090;13.162;2023-02-13T07:23:27;103243.09;;;5.44;100.00
49835;BME280;35729;52.090;13.162;2023-02-13T07:25:58;103245.69;;;5.44;100.00
49835;BME280;35729;52.090;13.162;2023-02-13T07:28:27;103250.06;;;5.45;100.00
49835;BME280;35729;52.090;13.162;2023-02-13T07:30:56;103244.00;;;5.45;100.00
49835;BME280;35729;52.090;13.162;2023-02-13T07:33:27;103246.66;;;5.46;100.00
49835;BME280;35729;52.090;13.162;2023-02-13T07:35:55;103251.03;;;5.47;100.00
49835;BME280;35729;52.090;13.162;2023-02-13T07:38:24;103246.66;;;5.46;100.00
49835;BME280;35729;52.090;13.162;2023-02-13T07:40:52;103244.09;;;5.48;100.00
49835;BME280;35729;52.090;13.162;2023-02-13T07:43:21;103250.19;;;5.48;100.00
49835;BME280;35729;52.090;13.162;2023-02-13T07:45:49;103248.50;;;5.49;100.00
49835;BME280;35729;52.090;13.162;2023-02-13T07:48:20;103254.56;;;5.49;100.00
49835;BME280;35729;52.090;13.162;2023-02-13T07:50:51;103258.97;;;5.50;100.00
49835;BME280;35729;52.090;13.162;2023-02-13T07:53:19;103258.13;;;5.51;100.00
49835;BME280;35729;52.090;13.162;2023-02-13T07:55:48;103252.97;;;5.53;100.00
49835;BME280;35729;52.090;13.162;2023-02-13T07:58:16;103255.63;;;5.54;100.00
49835;BME280;35729;52.090;13.162;2023-02-13T08:00:45;103258.25;;;5.54;100.00
49835;BME280;35729;52.090;13.162;2023-02-13T08:03:13;103258.31;;;5.56;100.00
49835;BME280;35729;52.090;13.162;2023-02-13T08:05:42;103265.38;;;5.59;100.00
49835;BME280;35729;52.090;13.162;2023-02-13T08:08:13;103261.91;;;5.60;100.00
49835;BME280;35729;52.090;13.162;2023-02-13T08:10:41;103265.41;;;5.60;100.00
49835;BME280;35729;52.090;13.162;2023-02-13T08:13:31;103262.00;;;5.61;100.00
49835;BME280;35729;52.090;13.162;2023-02-13T08:16:01;103267.31;;;5.64;100.00
49835;BME280;35729;52.090;13.162;2023-02-13T08:18:30;103268.28;;;5.66;100.00
49835;BME280;35729;52.090;13.162;2023-02-13T08:21:00;103269.19;;;5.68;100.00
49835;BME280;35729;52.090;13.162;2023-02-13T08:23:31;103264.91;;;5.69;100.00
49835;BME280;35729;52.090;13.162;2023-02-13T08:26:00;103265.81;;;5.71;100.00
49835;BME280;35729;52.090;13.162;2023-02-13T08:28:29;103261.53;;;5.71;100.00
49835;BME280;35729;52.090;13.162;2023-02-13T08:30:57;103268.50;;;5.73;100.00
49835;BME280;35729;52.090;13.162;2023-02-13T08:33:26;103270.34;;;5.75;100.00
49835;BME280;35729;52.090;13.162;2023-02-13T08:35:54;103265.19;;;5.77;100.00
49835;BME280;35729;52.090;13.162;2023-02-13T08:38:23;103265.25;;;5.78;100.00
49835;BME280;35729;52.090;13.162;2023-02-13T08:41:00;103267.91;;;5.80;100.00
49835;BME280;35729;52.090;13.162;2023-02-13T08:43:28;103269.72;;;5.82;100.00
49835;BME280;35729;52.090;13.162;2023-02-13T08:45:57;103263.69;;;5.83;100.00
49835;BME280;35729;52.090;13.162;2023-02-13T08:48:26;103275.13;;;5.87;100.00
49835;BME280;35729;52.090;13.162;2023-02-13T08:50:55;103269.91;;;5.87;100.00
49835;BME280;35729;52.090;13.162;2023-02-13T08:53:24;103263.06;;;5.89;100.00
49835;BME280;35729;52.090;13.162;2023-02-13T08:55:53;103270.09;;;5.92;100.00
49835;BME280;35729;52.090;13.162;2023-02-13T08:58:24;103265.81;;;5.94;100.00
49835;BME280;35729;52.090;13.162;2023-02-13T09:00:52;103264.19;;;5.96;100.00
49835;BME280;35729;52.090;13.162;2023-02-13T09:03:21;103266.78;;;5.96;100.00
49835;BME280;35729;52.090;13.162;2023-02-13T09:05:50;103261.56;;;5.96;100.00
49835;BME280;35729;52.090;13.162;2023-02-13T09:08:18;103259.09;;;5.99;100.00
49835;BME280;35729;52.090;13.162;2023-02-13T09:10:53;103261.78;;;6.00;100.00
49835;BME280;35729;52.090;13.162;2023-02-13T09:13:25;103261.00;;;6.03;100.00
49835;BME280;35729;52.090;13.162;2023-02-13T09:15:56;103266.31;;;6.06;100.00
49835;BME280;35729;52.090;13.162;2023-02-13T09:18:24;103257.69;;;6.07;100.00
49835;BME280;35729;52.090;13.162;2023-02-13T09:20:59;103252.56;;;6.10;100.00
49835;BME280;35729;52.090;13.162;2023-02-13T09:23:30;103252.69;;;6.13;100.00
49835;BME280;35729;52.090;13.162;2023-02-13T09:25:59;103253.72;;;6.17;100.00
49835;BME280;35729;52.090;13.162;2023-02-13T09:28:32;103252.16;;;6.22;100.00
49835;BME280;35729;52.090;13.162;2023-02-13T09:31:04;103250.56;;;6.26;100.00
49835;BME280;35729;52.090;13.162;2023-02-13T09:33:32;103256.78;;;6.29;100.00
49835;BME280;35729;52.090;13.162;2023-02-13T09:36:03;103260.28;;;6.31;100.00
49835;BME280;35729;52.090;13.162;2023-02-13T09:38:32;103266.47;;;6.33;100.00
49835;BME280;35729;52.090;13.162;2023-02-13T09:41:04;103274.34;;;6.35;100.00
49835;BME280;35729;52.090;13.162;2023-02-13T09:43:40;103277.00;;;6.36;100.00
49835;BME280;35729;52.090;13.162;2023-02-13T09:46:13;103270.13;;;6.39;100.00
49835;BME280;35729;52.090;13.162;2023-02-13T09:48:46;103266.75;;;6.41;100.00
49835;BME280;35729;52.090;13.162;2023-02-13T09:51:18;103281.66;;;6.45;100.00
49835;BME280;35729;52.090;13.162;2023-02-13T09:53:51;103273.97;;;6.48;100.00
49835;BME280;35729;52.090;13.162;2023-02-13T09:56:26;103269.66;;;6.50;100.00
49835;BME280;35729;52.090;13.162;2023-02-13T09:59:07;103272.28;;;6.50;100.00
49835;BME280;35729;52.090;13.162;2023-02-13T10:01:46;103274.09;;;6.53;100.00
49835;BME280;35729;52.090;13.162;2023-02-13T10:04:26;103276.78;;;6.55;100.00
49835;BME280;35729;52.090;13.162;2023-02-13T10:07:10;103273.31;;;6.56;100.00
49835;BME280;35729;52.090;13.162;2023-02-13T10:09:50;103286.53;;;6.60;100.00
49835;BME280;35729;52.090;13.162;2023-02-13T10:12:34;103283.97;;;6.62;100.00
49835;BME280;35729;52.090;13.162;2023-02-13T10:15:19;103280.59;;;6.64;100.00
49835;BME280;35729;52.090;13.162;2023-02-13T10:17:53;103277.16;;;6.65;100.00
49835;BME280;35729;52.090;13.162;2023-02-13T10:20:28;103270.31;;;6.69;100.00
49835;BME280;35729;52.090;13.162;2023-02-13T10:23:05;103269.50;;;6.70;100.00
49835;BME280;35729;52.090;13.162;2023-02-13T10:25:42;103270.53;;;6.75;100.00
49835;BME280;35729;52.090;13.162;2023-02-13T10:28:16;103261.94;;;6.78;100.00
49835;BME280;35729;52.090;13.162;2023-02-13T10:30:51;103256.81;;;6.81;100.00
49835;BME280;35729;52.090;13.162;2023-02-13T10:33:26;103253.38;;;6.82;100.00
49835;BME280;35729;52.090;13.162;2023-02-13T10:36:00;103252.53;;;6.83;100.00
49835;BME280;35729;52.090;13.162;2023-02-13T10:38:31;103256.03;;;6.83;100.00
49835;BME280;35729;52.090;13.162;2023-02-13T10:41:10;103249.88;;;6.81;100.00
49835;BME280;35729;52.090;13.162;2023-02-13T10:43:48;103249.94;;;6.83;100.00
49835;BME280;35729;52.090;13.162;2023-02-13T10:46:31;103254.31;;;6.84;100.00
49835;BME280;35729;52.090;13.162;2023-02-13T10:49:22;103251.66;;;6.82;99.30
49835;BME280;35729;52.090;13.162;2023-02-13T10:52:02;103249.16;;;6.85;100.00
49835;BME280;35729;52.090;13.162;2023-02-13T10:54:53;103237.94;;;6.88;100.00
49835;BME280;35729;52.090;13.162;2023-02-13T10:57:29;103236.34;;;6.93;100.00
49835;BME280;35729;52.090;13.162;2023-02-13T11:00:06;103240.78;;;6.96;99.92
49835;BME280;35729;52.090;13.162;2023-02-13T11:02:40;103235.59;;;6.97;100.00
49835;BME280;35729;52.090;13.162;2023-02-13T11:05:15;103238.22;;;6.97;99.54
49835;BME280;35729;52.090;13.162;2023-02-13T11:07:45;103239.16;;;6.99;100.00
49835;BME280;35729;52.090;13.162;2023-02-13T11:10:16;103235.78;;;7.02;100.00
49835;BME280;35729;52.090;13.162;2023-02-13T11:12:45;103225.38;;;7.04;100.00
49835;BME280;35729;52.090;13.162;2023-02-13T11:15:23;103232.38;;;7.05;100.00
49835;BME280;35729;52.090;13.162;2023-02-13T11:17:56;103234.16;;;7.06;100.00
49835;BME280;35729;52.090;13.162;2023-02-13T11:20:30;103225.50;;;7.07;99.82
49835;BME280;35729;52.090;13.162;2023-02-13T11:23:14;103223.72;;;7.06;95.51
49835;BME280;35729;52.090;13.162;2023-02-13T11:25:52;103221.16;;;7.07;99.36
49835;BME280;35729;52.090;13.162;2023-02-13T11:28:23;103218.56;;;7.09;100.00
49835;BME280;35729;52.090;13.162;2023-02-13T11:30:52;103221.25;;;7.10;100.00
49835;BME280;35729;52.090;13.162;2023-02-13T11:33:26;103218.69;;;7.12;99.94
49835;BME280;35729;52.090;13.162;2023-02-13T11:36:05;103212.69;;;7.14;100.00
49835;BME280;35729;52.090;13.162;2023-02-13T11:38:40;103211.78;;;7.14;98.74
49835;BME280;35729;52.090;13.162;2023-02-13T11:41:11;103213.59;;;7.16;98.15
49835;BME280;35729;52.090;13.162;2023-02-13T11:43:46;103210.03;;;7.13;96.67
49835;BME280;35729;52.090;13.162;2023-02-13T11:46:21;103209.16;;;7.14;97.71
49835;BME280;35729;52.090;13.162;2023-02-13T11:49:03;103209.91;;;7.10;94.38
49835;BME280;35729;52.090;13.162;2023-02-13T11:51:41;103201.25;;;7.11;94.99
49835;BME280;35729;52.090;13.162;2023-02-13T11:54:34;103208.25;;;7.12;97.36
49835;BME280;35729;52.090;13.162;2023-02-13T11:57:18;103211.78;;;7.14;97.94
49835;BME280;35729;52.090;13.162;2023-02-13T11:59:48;103206.56;;;7.14;95.80
49835;BME280;35729;52.090;13.162;2023-02-13T12:02:19;103211.06;;;7.18;97.44
49835;BME280;35729;52.090;13.162;2023-02-13T12:04:52;103212.06;;;7.22;96.47
49835;BME280;35729;52.090;13.162;2023-02-13T12:07:24;103212.97;;;7.24;95.34
49835;BME280;35729;52.090;13.162;2023-02-13T12:09:58;103213.75;;;7.21;93.46
49835;BME280;35729;52.090;13.162;2023-02-13T12:12:32;103202.41;;;7.19;92.90
49835;BME280;35729;52.090;13.162;2023-02-13T12:15:14;103212.84;;;7.19;90.92
49835;BME280;35729;52.090;13.162;2023-02-13T12:17:44;103195.44;;;7.20;92.54
49835;BME280;35729;52.090;13.162;2023-02-13T12:20:17;103204.16;;;7.20;94.08
49835;BME280;35729;52.090;13.162;2023-02-13T12:22:55;103187.66;;;7.21;94.22
49835;BME280;35729;52.090;13.162;2023-02-13T12:25:51;103193.78;;;7.22;87.92
49835;BME280;35729;52.090;13.162;2023-02-13T12:28:26;103186.91;;;7.25;93.69
49835;BME280;35729;52.090;13.162;2023-02-13T12:31:19;103186.06;;;7.26;93.03
49835;BME280;35729;52.090;13.162;2023-02-13T12:34:27;103187.00;;;7.28;94.02
49835;BME280;35729;52.090;13.162;2023-02-13T12:37:11;103190.50;;;7.29;92.15
49835;BME280;35729;52.090;13.162;2023-02-13T12:39:51;103189.69;;;7.31;92.70
49835;BME280;35729;52.090;13.162;2023-02-13T12:42:31;103186.25;;;7.32;93.13
49835;BME280;35729;52.090;13.162;2023-02-13T12:45:14;103189.69;;;7.31;92.37
49835;BME280;35729;52.090;13.162;2023-02-13T12:48:01;103185.44;;;7.33;93.48
49835;BME280;35729;52.090;13.162;2023-02-13T12:50:50;103188.06;;;7.35;94.37
49835;BME280;35729;52.090;13.162;2023-02-13T12:53:35;103181.19;;;7.37;94.54
49835;BME280;35729;52.090;13.162;2023-02-13T12:56:15;103184.66;;;7.38;93.42
49835;BME280;35729;52.090;13.162;2023-02-13T12:59:06;103180.34;;;7.38;91.84
49835;BME280;35729;52.090;13.162;2023-02-13T13:01:57;103187.31;;;7.39;90.80
49835;BME280;35729;52.090;13.162;2023-02-13T13:04:42;103188.22;;;7.40;91.96
49835;BME280;35729;52.090;13.162;2023-02-13T13:07:24;103187.31;;;7.39;89.88
49835;BME280;35729;52.090;13.162;2023-02-13T13:10:16;103188.22;;;7.40;87.63
49835;BME280;35729;52.090;13.162;2023-02-13T13:12:53;103185.63;;;7.40;92.34
49835;BME280;35729;52.090;13.162;2023-02-13T13:15:31;103185.66;;;7.41;93.05